createdAt,value
2022-11-13T00:05:47.870Z,6.40
2022-11-13T00:11:49.594Z,6.20
2022-11-13T00:17:51.344Z,5.90
2022-11-13T00:23:53.757Z,6.00
2022-11-13T00:29:55.387Z,6.20
2022-11-13T00:36:07.000Z,6.20
2022-11-13T00:42:08.655Z,6.30
2022-11-13T00:48:10.324Z,6.20
2022-11-13T00:54:11.966Z,6.00
2022-11-13T01:00:13.939Z,5.90
2022-11-13T01:06:26.069Z,5.90
2022-11-13T01:12:27.693Z,6.00
2022-11-13T01:18:29.526Z,6.20
2022-11-13T01:24:31.592Z,6.10
2022-11-13T01:30:33.236Z,6.20
2022-11-13T01:36:34.904Z,5.90
2022-11-13T01:42:36.584Z,5.90
2022-11-13T01:49:01.523Z,5.90
2022-11-13T01:55:05.486Z,5.70
2022-11-13T02:01:07.174Z,5.80
2022-11-13T02:07:10.483Z,5.90
2022-11-13T02:13:12.527Z,5.70
2022-11-13T02:19:20.602Z,5.70
2022-11-13T02:25:24.933Z,5.90
2022-11-13T02:31:26.667Z,5.80
2022-11-13T02:37:28.286Z,5.80
2022-11-13T02:43:29.917Z,6.00
2022-11-13T02:49:31.615Z,5.70
2022-11-13T02:55:33.358Z,5.50
2022-11-13T03:01:35.112Z,5.40
2022-11-13T03:07:36.927Z,5.60
2022-11-13T03:13:38.913Z,5.60
2022-11-13T03:19:40.544Z,5.60
2022-11-13T03:25:42.168Z,5.40
2022-11-13T03:31:43.851Z,5.60
2022-11-13T03:37:45.698Z,5.30
2022-11-13T03:43:47.387Z,5.70
2022-11-13T03:49:49.046Z,5.60
2022-11-13T03:55:50.695Z,5.50
2022-11-13T04:01:52.418Z,5.40
2022-11-13T04:07:54.108Z,5.30
2022-11-13T04:13:55.744Z,5.30
2022-11-13T04:19:57.386Z,5.40
2022-11-13T04:25:59.212Z,5.70
2022-11-13T04:32:00.834Z,5.70
2022-11-13T04:38:02.666Z,5.70
2022-11-13T04:44:04.374Z,5.50
2022-11-13T04:50:06.347Z,5.40
2022-11-13T04:56:07.944Z,5.30
2022-11-13T05:02:09.595Z,5.30
2022-11-13T05:08:11.706Z,5.30
2022-11-13T05:14:14.453Z,5.30
2022-11-13T05:20:16.422Z,5.30
2022-11-13T05:26:18.245Z,5.20
2022-11-13T05:32:19.976Z,5.10
2022-11-13T05:38:21.598Z,5.00
2022-11-13T05:44:23.285Z,5.00
2022-11-13T05:50:24.933Z,5.10
2022-11-13T05:56:31.436Z,4.90
2022-11-13T06:02:35.034Z,4.80
2022-11-13T06:08:37.179Z,4.90
2022-11-13T06:14:38.807Z,4.90
2022-11-13T06:20:40.427Z,4.80
2022-11-13T06:26:42.207Z,4.50
2022-11-13T06:32:43.851Z,4.30
2022-11-13T06:38:46.158Z,4.50
2022-11-13T06:44:47.868Z,4.60
2022-11-13T06:50:49.954Z,4.70
2022-11-13T06:56:51.554Z,4.40
2022-11-13T07:02:53.225Z,4.50
2022-11-13T07:08:54.902Z,4.60
2022-11-13T07:14:56.559Z,4.70
2022-11-13T07:20:58.810Z,4.60
2022-11-13T07:27:00.640Z,4.70
2022-11-13T07:33:03.193Z,4.90
2022-11-13T07:39:04.843Z,5.20
2022-11-13T07:45:06.801Z,5.10
2022-11-13T07:51:08.508Z,5.20
2022-11-13T07:57:10.188Z,5.60
2022-11-13T08:03:13.274Z,5.70
2022-11-13T08:09:15.038Z,5.90
2022-11-13T08:15:16.665Z,6.20
2022-11-13T08:21:18.524Z,6.30
2022-11-13T08:27:20.726Z,6.70
2022-11-13T08:33:22.401Z,7.00
2022-11-13T08:39:24.125Z,7.10
2022-11-13T08:45:25.803Z,7.20
2022-11-13T08:51:27.375Z,7.20
2022-11-13T08:57:29.154Z,7.50
2022-11-13T09:03:30.959Z,7.80
2022-11-13T09:09:33.203Z,7.90
2022-11-13T09:15:37.144Z,8.10
2022-11-13T09:21:38.837Z,8.20
2022-11-13T09:27:40.440Z,8.40
2022-11-13T09:33:42.060Z,8.40
2022-11-13T09:39:43.884Z,8.50
2022-11-13T09:45:45.967Z,8.60
2022-11-13T09:51:54.994Z,8.80
2022-11-13T09:57:56.663Z,9.10
2022-11-13T10:04:03.307Z,9.50
2022-11-13T10:10:11.768Z,10.00
2022-11-13T10:16:22.522Z,10.30
2022-11-13T10:22:32.871Z,10.60
2022-11-13T10:28:50.078Z,10.90
2022-11-13T10:34:56.979Z,11.20
2022-11-13T10:41:24.968Z,11.40
2022-11-13T10:47:56.808Z,11.50
2022-11-13T10:53:49.581Z,11.80
2022-11-13T10:59:51.302Z,12.00
2022-11-13T11:05:53.046Z,12.30
2022-11-13T11:12:16.057Z,12.50
2022-11-13T11:18:37.963Z,12.90
2022-11-13T11:24:42.337Z,13.10
2022-11-13T11:30:47.445Z,13.30
2022-11-13T11:37:04.318Z,13.50
2022-11-13T11:43:05.963Z,13.80
2022-11-13T11:49:09.013Z,13.90
2022-11-13T11:55:28.806Z,14.20
2022-11-13T12:01:49.224Z,14.40
2022-11-13T12:08:04.700Z,14.50
2022-11-13T12:14:18.746Z,14.40
2022-11-13T12:20:31.652Z,14.30
2022-11-13T12:26:39.867Z,14.10
2022-11-13T12:32:41.675Z,14.00
2022-11-13T12:38:49.637Z,13.90
2022-11-13T12:45:08.244Z,13.80
2022-11-13T12:51:11.372Z,13.80
2022-11-13T12:57:13.292Z,13.80
2022-11-13T13:03:15.035Z,13.60
2022-11-13T13:09:22.746Z,13.60
2022-11-13T13:15:27.467Z,13.50
2022-11-13T13:21:39.449Z,13.30
2022-11-13T13:27:42.227Z,13.00
2022-11-13T13:34:07.087Z,12.70
2022-11-13T13:40:27.242Z,12.40
2022-11-13T13:46:33.347Z,12.30
2022-11-13T13:52:36.161Z,12.40
2022-11-13T13:58:38.480Z,12.50
2022-11-13T14:04:51.016Z,12.40
2022-11-13T14:10:53.122Z,12.30
2022-11-13T14:16:55.913Z,11.80
2022-11-13T14:22:57.624Z,11.50
2022-11-13T14:29:00.416Z,11.40
2022-11-13T14:35:03.256Z,11.00
2022-11-13T14:41:05.501Z,10.80
2022-11-13T14:47:20.650Z,10.60
2022-11-13T14:53:30.037Z,10.50
2022-11-13T14:59:32.270Z,10.20
2022-11-13T15:05:33.979Z,10.10
2022-11-13T15:11:38.722Z,9.90
2022-11-13T15:17:43.361Z,9.60
2022-11-13T15:23:45.001Z,9.40
2022-11-13T15:29:46.682Z,9.10
2022-11-13T15:35:48.287Z,8.80
2022-11-13T15:41:50.159Z,8.60
2022-11-13T15:47:51.882Z,8.50
2022-11-13T15:53:55.680Z,8.30
2022-11-13T15:59:57.307Z,8.00
2022-11-13T16:05:59.251Z,7.80
2022-11-13T16:12:01.598Z,7.60
2022-11-13T16:18:03.380Z,7.50
2022-11-13T16:24:05.276Z,7.70
2022-11-13T16:30:10.451Z,7.60
2022-11-13T16:36:16.367Z,7.30
2022-11-13T16:42:18.392Z,7.20
2022-11-13T16:48:20.061Z,7.00
2022-11-13T16:54:23.561Z,6.90
2022-11-13T17:00:28.114Z,6.90
2022-11-13T17:06:34.323Z,6.80
2022-11-13T17:12:35.977Z,6.70
2022-11-13T17:18:37.607Z,6.50
2022-11-13T17:24:39.791Z,6.40
2022-11-13T17:30:41.381Z,6.20
2022-11-13T17:36:43.039Z,6.10
2022-11-13T17:42:44.803Z,6.00
2022-11-13T17:48:48.080Z,5.90
2022-11-13T17:54:49.790Z,6.10
2022-11-13T18:00:52.014Z,6.30
2022-11-13T18:06:53.785Z,6.30
2022-11-13T18:12:55.501Z,6.30
2022-11-13T18:18:57.987Z,6.20
2022-11-13T18:25:01.486Z,6.20
2022-11-13T18:31:07.297Z,6.10
2022-11-13T18:37:09.098Z,6.10
2022-11-13T18:43:10.871Z,6.10
2022-11-13T18:49:12.621Z,6.20
2022-11-13T18:55:14.444Z,6.00
2022-11-13T19:01:21.776Z,6.20
2022-11-13T19:07:24.532Z,6.30
2022-11-13T19:13:27.176Z,6.20
2022-11-13T19:19:28.838Z,6.00
2022-11-13T19:25:31.225Z,6.10
2022-11-13T19:31:33.406Z,6.00
2022-11-13T19:37:35.029Z,6.10
2022-11-13T19:43:37.634Z,6.20
2022-11-13T19:49:39.771Z,6.30
2022-11-13T19:55:41.859Z,6.50
2022-11-13T20:01:43.752Z,6.60
2022-11-13T20:07:45.502Z,6.60
2022-11-13T20:13:47.472Z,6.50
2022-11-13T20:19:49.194Z,6.40
2022-11-13T20:25:55.235Z,6.50
2022-11-13T20:31:56.855Z,6.40
2022-11-13T20:37:58.517Z,6.40
2022-11-13T20:44:01.965Z,6.30
2022-11-13T20:50:03.712Z,6.30
2022-11-13T20:56:05.489Z,6.20
2022-11-13T21:02:07.290Z,6.30
2022-11-13T21:08:10.393Z,6.20
2022-11-13T21:14:12.156Z,6.10
2022-11-13T21:20:14.009Z,6.10
2022-11-13T21:26:16.012Z,6.00
2022-11-13T21:32:17.673Z,6.00
2022-11-13T21:38:19.334Z,6.00
2022-11-13T21:44:20.942Z,6.00
2022-11-13T21:50:22.672Z,5.90
2022-11-13T21:56:24.758Z,5.80
2022-11-13T22:02:26.450Z,5.80
2022-11-13T22:08:28.392Z,5.70
2022-11-13T22:14:30.219Z,5.70
2022-11-13T22:20:31.900Z,5.70
2022-11-13T22:26:35.894Z,5.70
2022-11-13T22:32:37.562Z,5.80
2022-11-13T22:38:39.564Z,5.70
2022-11-13T22:44:55.502Z,5.60
2022-11-13T22:51:05.672Z,5.80
2022-11-13T22:57:07.311Z,5.50
2022-11-13T23:03:09.056Z,5.40
2022-11-13T23:09:10.961Z,5.20
2022-11-13T23:15:12.721Z,5.10
2022-11-13T23:21:14.887Z,5.20
2022-11-13T23:27:16.621Z,5.30
2022-11-13T23:33:18.628Z,5.20
2022-11-13T23:39:20.372Z,5.10
2022-11-13T23:45:22.122Z,5.10
2022-11-13T23:51:23.775Z,5.00
2022-11-13T23:57:25.525Z,5.00
